Time;durP1;ratioP1;P1;durP2;ratioP2;P2;SDS_P1;SDS_P2;PMS_P1;PMS_P2;Temp;Humidity;BMP_temperature;BMP_pressure;BME280_temperature;BME280_humidity;BME280_pressure;Samples;Min_cycle;Max_cycle;Signal;HPM_P1;HPM_P2
2021/11/13 00:01:25;;;;;;;13.50;10.10;;;8.10;99.90;;;;;;4993452;28;20241;-61
2021/11/13 00:03:53;;;;;;;13.95;10.20;;;8.10;99.90;;;;;;4993499;28;20216;-61
2021/11/13 00:06:23;;;;;;;12.75;9.35;;;8.10;99.90;;;;;;5009066;28;20275;-63
2021/11/13 00:08:51;;;;;;;12.57;10.50;;;8.10;99.90;;;;;;4993381;28;20398;-63
2021/11/13 00:11:19;;;;;;;14.75;10.45;;;8.10;99.90;;;;;;4993190;28;20226;-61
2021/11/13 00:13:51;;;;;;;13.05;9.32;;;8.10;99.90;;;;;;4993258;28;20207;-61
2021/11/13 00:16:20;;;;;;;12.20;10.57;;;8.00;99.90;;;;;;4993059;28;20223;-63
2021/11/13 00:18:48;;;;;;;15.60;10.60;;;7.90;99.90;;;;;;4991828;28;20226;-62
2021/11/13 00:21:16;;;;;;;14.32;11.32;;;7.90;99.90;;;;;;4993356;28;20217;-62
2021/11/13 00:23:46;;;;;;;12.93;9.85;;;7.90;99.90;;;;;;4993015;28;20324;-62
2021/11/13 00:26:14;;;;;;;16.05;11.05;;;7.90;99.90;;;;;;4991329;28;20221;-62
2021/11/13 00:28:42;;;;;;;18.75;11.68;;;7.80;99.90;;;;;;5008169;28;20249;-63
2021/11/13 00:31:10;;;;;;;16.70;11.32;;;7.80;99.90;;;;;;4992080;28;20276;-61
2021/11/13 00:33:39;;;;;;;16.08;11.70;;;7.80;99.90;;;;;;4993835;28;20199;-61
2021/11/13 00:36:07;;;;;;;20.25;12.70;;;7.80;99.90;;;;;;4992810;28;20242;-62
2021/11/13 00:38:35;;;;;;;14.90;11.55;;;7.80;99.90;;;;;;4993139;28;20194;-63
2021/11/13 00:41:04;;;;;;;17.95;10.90;;;7.80;99.90;;;;;;4992386;28;20628;-62
2021/11/13 00:43:33;;;;;;;14.02;11.02;;;7.70;99.90;;;;;;4992854;28;20214;-61
2021/11/13 00:46:01;;;;;;;14.68;10.63;;;7.80;99.90;;;;;;4992170;28;20664;-62
2021/11/13 00:48:30;;;;;;;12.85;9.95;;;7.80;99.90;;;;;;4993041;28;20722;-63
2021/11/13 00:50:58;;;;;;;12.85;10.35;;;7.80;99.90;;;;;;4992105;28;20218;-62
2021/11/13 00:53:26;;;;;;;11.82;10.60;;;7.90;99.90;;;;;;4996785;28;20608;-62
2021/11/13 00:55:54;;;;;;;17.60;11.70;;;7.90;99.90;;;;;;5009729;28;20655;-63
2021/11/13 00:58:23;;;;;;;13.88;10.63;;;7.90;99.90;;;;;;4992797;28;20542;-64
2021/11/13 01:00:52;;;;;;;14.60;11.43;;;7.90;99.90;;;;;;4992011;28;20233;-61
2021/11/13 01:03:20;;;;;;;16.98;10.70;;;8.00;99.90;;;;;;4992741;28;20195;-62
2021/11/13 01:05:48;;;;;;;16.02;12.02;;;7.90;99.90;;;;;;4991848;28;20230;-64
2021/11/13 01:08:17;;;;;;;14.38;11.07;;;7.90;99.90;;;;;;4992642;28;20623;-63
2021/11/13 01:10:45;;;;;;;16.27;11.50;;;7.90;99.90;;;;;;4991857;28;20224;-61
2021/11/13 01:13:14;;;;;;;17.77;11.02;;;8.00;99.90;;;;;;4992384;28;20204;-62
2021/11/13 01:15:44;;;;;;;14.32;11.43;;;8.00;99.90;;;;;;4991818;28;20713;-63
2021/11/13 01:18:14;;;;;;;16.58;10.65;;;8.00;99.90;;;;;;4992398;28;20549;-62
2021/11/13 01:20:42;;;;;;;15.60;10.98;;;8.00;99.90;;;;;;4991851;28;20277;-62
2021/11/13 01:23:11;;;;;;;12.75;9.60;;;8.00;99.90;;;;;;4992164;28;20639;-61
2021/11/13 01:25:39;;;;;;;18.65;11.85;;;8.00;99.90;;;;;;5006759;28;20237;-62
2021/11/13 01:28:11;;;;;;;20.20;11.45;;;8.00;99.90;;;;;;5012043;28;20197;-62
2021/11/13 01:30:40;;;;;;;17.58;11.65;;;8.00;99.90;;;;;;5011621;28;20630;-61
2021/11/13 01:33:09;;;;;;;15.48;10.63;;;8.00;99.90;;;;;;5011799;28;20189;-61
2021/11/13 01:35:37;;;;;;;13.68;11.10;;;8.00;99.90;;;;;;4994590;28;20228;-63
2021/11/13 01:38:06;;;;;;;15.60;11.50;;;8.00;99.90;;;;;;4992296;28;20612;-63
2021/11/13 01:40:36;;;;;;;18.55;11.80;;;8.00;99.90;;;;;;4993561;28;20721;-61
2021/11/13 01:43:05;;;;;;;16.20;10.07;;;8.00;99.90;;;;;;5028424;28;20673;-61
2021/11/13 01:45:33;;;;;;;17.20;10.70;;;8.10;99.90;;;;;;5034702;28;20238;-63
2021/11/13 01:48:01;;;;;;;16.98;10.63;;;8.10;99.90;;;;;;5035491;28;20199;-62
2021/11/13 01:50:36;;;;;;;21.17;10.95;;;8.10;99.90;;;;;;5014510;28;20271;-62
2021/11/13 01:53:07;;;;;;;15.68;10.50;;;8.10;99.90;;;;;;4997576;28;20276;-62
2021/11/13 01:55:37;;;;;;;14.65;10.40;;;8.10;99.90;;;;;;5015058;28;20229;-63
2021/11/13 01:58:07;;;;;;;19.65;11.23;;;8.20;99.90;;;;;;4995858;28;20202;-62
2021/11/13 02:00:38;;;;;;;15.77;9.77;;;8.20;99.90;;;;;;4995448;28;20580;-60
2021/11/13 02:03:07;;;;;;;16.77;9.68;;;8.20;99.90;;;;;;4995912;28;20658;-61
2021/11/13 02:05:36;;;;;;;13.98;9.77;;;8.20;99.90;;;;;;4994729;28;20230;-62
2021/11/13 02:08:06;;;;;;;15.43;9.70;;;8.20;99.90;;;;;;4996420;28;20199;-62
2021/11/13 02:10:35;;;;;;;11.70;8.40;;;8.30;99.90;;;;;;5010433;28;20264;-62
2021/11/13 02:13:03;;;;;;;14.68;10.13;;;8.30;99.90;;;;;;4996025;28;20204;-62
2021/11/13 02:15:33;;;;;;;14.52;10.02;;;8.30;99.90;;;;;;4995055;28;20220;-63
2021/11/13 02:18:01;;;;;;;13.88;9.05;;;8.40;99.90;;;;;;4995702;28;20191;-62
2021/11/13 02:20:33;;;;;;;14.00;9.57;;;8.40;99.90;;;;;;4995328;28;20589;-61
2021/11/13 02:23:05;;;;;;;14.90;9.27;;;8.50;99.90;;;;;;4995812;28;20198;-61
2021/11/13 02:25:34;;;;;;;14.27;10.18;;;8.40;99.90;;;;;;4994695;28;20768;-62
2021/11/13 02:28:05;;;;;;;15.35;10.23;;;8.40;99.90;;;;;;4995608;28;20217;-63
2021/11/13 02:30:33;;;;;;;15.93;10.80;;;8.50;99.90;;;;;;4995106;28;20229;-61
2021/11/13 02:33:02;;;;;;;13.07;9.20;;;8.50;99.90;;;;;;4995321;28;20543;-61
2021/11/13 02:35:32;;;;;;;13.63;10.93;;;8.50;99.90;;;;;;4992999;28;20693;-62
2021/11/13 02:38:11;;;;;;;16.73;10.27;;;8.50;99.90;;;;;;4995052;28;20280;-63
2021/11/13 02:40:42;;;;;;;17.65;11.18;;;8.50;99.90;;;;;;4994794;28;20230;-62
2021/11/13 02:43:11;;;;;;;14.40;10.10;;;8.50;99.90;;;;;;5014865;28;20202;-61
2021/11/13 02:45:41;;;;;;;17.05;10.65;;;8.60;99.90;;;;;;5013916;28;20228;-62
2021/11/13 02:48:10;;;;;;;20.83;12.27;;;8.60;99.90;;;;;;5014593;28;20243;-62
2021/11/13 02:50:43;;;;;;;19.35;12.40;;;8.60;99.90;;;;;;5002841;28;20791;-62
2021/11/13 02:53:15;;;;;;;15.75;11.35;;;8.60;99.90;;;;;;4996530;28;20203;-61
2021/11/13 02:55:43;;;;;;;18.33;11.70;;;8.60;99.90;;;;;;5013281;28;20239;-63
2021/11/13 02:58:16;;;;;;;18.75;12.43;;;8.60;99.90;;;;;;4994900;28;20236;-62
2021/11/13 03:00:45;;;;;;;20.90;12.82;;;8.70;99.90;;;;;;4994389;28;20220;-61
2021/11/13 03:03:17;;;;;;;18.13;11.90;;;8.70;99.90;;;;;;4994777;28;20547;-61
2021/11/13 03:05:48;;;;;;;17.02;12.20;;;8.70;99.90;;;;;;4993895;28;20707;-62
2021/11/13 03:08:22;;;;;;;19.98;12.90;;;8.60;99.90;;;;;;4994880;28;20615;-64
2021/11/13 03:10:51;;;;;;;16.42;11.38;;;8.60;99.90;;;;;;4993859;28;20229;-62
2021/11/13 03:13:19;;;;;;;23.50;12.85;;;8.60;99.90;;;;;;4994641;28;20266;-61
2021/11/13 03:15:50;;;;;;;20.02;11.98;;;8.60;99.90;;;;;;4993580;28;20231;-63
2021/11/13 03:18:18;;;;;;;18.08;10.75;;;8.60;99.90;;;;;;4994772;28;20681;-63
2021/11/13 03:20:48;;;;;;;15.73;11.50;;;8.60;99.90;;;;;;4993736;28;20228;-62
2021/11/13 03:23:17;;;;;;;20.80;12.23;;;8.60;99.90;;;;;;4994531;28;20208;-62
2021/11/13 03:25:52;;;;;;;18.48;11.05;;;8.60;99.90;;;;;;5008078;28;20237;-63
2021/11/13 03:28:24;;;;;;;15.73;10.35;;;8.70;99.90;;;;;;4993019;28;20614;-62
2021/11/13 03:30:52;;;;;;;19.85;11.70;;;8.70;99.90;;;;;;4993737;28;20286;-62
2021/11/13 03:33:20;;;;;;;16.10;11.40;;;8.70;99.90;;;;;;4994476;28;20570;-61
2021/11/13 03:35:50;;;;;;;17.02;11.10;;;8.80;99.90;;;;;;4993299;28;20245;-62
2021/11/13 03:38:19;;;;;;;18.00;11.65;;;8.80;99.90;;;;;;4994097;28;20200;-61
2021/11/13 03:40:49;;;;;;;17.33;11.50;;;8.80;99.90;;;;;;4993621;28;20709;-62
2021/11/13 03:43:18;;;;;;;15.07;10.07;;;8.70;99.90;;;;;;4994681;28;20435;-61
2021/11/13 03:45:47;;;;;;;14.68;11.68;;;8.70;99.90;;;;;;4993263;28;20561;-63
2021/11/13 03:48:16;;;;;;;16.73;11.40;;;8.60;99.90;;;;;;5008757;28;20750;-64
2021/11/13 03:50:46;;;;;;;20.42;12.77;;;8.60;99.90;;;;;;4996173;28;21059;-63
2021/11/13 03:53:16;;;;;;;20.45;12.60;;;8.60;99.90;;;;;;4995807;28;20595;-63
2021/11/13 03:55:44;;;;;;;18.77;13.00;;;8.50;99.90;;;;;;5012175;28;20682;-62
2021/11/13 03:58:13;;;;;;;20.00;11.30;;;8.50;99.90;;;;;;4993635;28;20201;-63
2021/11/13 04:00:41;;;;;;;17.45;11.80;;;8.50;99.90;;;;;;4993330;28;20605;-64
2021/11/13 04:03:10;;;;;;;17.20;11.35;;;8.40;99.90;;;;;;5001029;28;20594;-62
2021/11/13 04:05:38;;;;;;;17.30;11.25;;;8.30;99.90;;;;;;5010054;28;20220;-62
2021/11/13 04:08:06;;;;;;;17.98;12.02;;;8.40;99.90;;;;;;5013035;28;20209;-64
2021/11/13 04:10:36;;;;;;;17.38;11.98;;;8.30;99.90;;;;;;5012661;28;20311;-62
2021/11/13 04:13:06;;;;;;;12.98;11.45;;;8.30;99.90;;;;;;4993661;28;20201;-61
2021/11/13 04:15:35;;;;;;;20.13;12.10;;;8.30;99.90;;;;;;4992699;28;20233;-61
2021/11/13 04:18:04;;;;;;;16.20;11.60;;;8.30;99.90;;;;;;4993417;28;20245;-63
2021/11/13 04:20:32;;;;;;;16.02;10.77;;;8.30;99.90;;;;;;4992754;28;20232;-64
2021/11/13 04:23:00;;;;;;;18.67;11.60;;;8.30;99.90;;;;;;4993930;28;20219;-61
2021/11/13 04:25:29;;;;;;;16.13;10.82;;;8.30;99.90;;;;;;4992284;28;20661;-62
2021/11/13 04:28:01;;;;;;;15.13;11.00;;;8.30;99.90;;;;;;4993299;28;20209;-63
2021/11/13 04:30:29;;;;;;;17.23;11.20;;;8.30;99.90;;;;;;4992522;28;20237;-63
2021/11/13 04:32:57;;;;;;;12.60;10.40;;;8.30;99.90;;;;;;4992879;28;20196;-62
2021/11/13 04:35:44;;;;;;;12.23;9.52;;;8.30;99.90;;;;;;4991728;28;20532;-62
2021/11/13 04:38:13;;;;;;;11.85;8.45;;;8.30;99.90;;;;;;4993042;28;20703;-64
2021/11/13 04:40:41;;;;;;;9.52;7.43;;;8.30;99.90;;;;;;4992092;28;20696;-63
2021/11/13 04:43:11;;;;;;;10.63;8.52;;;8.40;99.90;;;;;;4993313;28;20718;-62
2021/11/13 04:45:39;;;;;;;11.20;7.97;;;8.30;99.90;;;;;;4990643;28;20652;-62
2021/11/13 04:48:07;;;;;;;11.13;8.48;;;8.30;99.90;;;;;;4992793;28;20451;-63
2021/11/13 04:50:36;;;;;;;8.93;7.20;;;8.30;99.90;;;;;;4991980;28;20230;-62
2021/11/13 04:53:05;;;;;;;8.93;7.70;;;8.40;99.90;;;;;;5012393;28;20833;-62
2021/11/13 04:55:35;;;;;;;9.48;6.97;;;8.40;99.90;;;;;;5011522;28;20231;-62
2021/11/13 04:58:04;;;;;;;8.10;7.15;;;8.40;99.90;;;;;;4991681;28;20209;-63
2021/11/13 05:00:34;;;;;;;8.70;7.10;;;8.40;99.90;;;;;;4992290;28;20276;-63
2021/11/13 05:03:04;;;;;;;9.27;6.88;;;8.40;99.90;;;;;;4992483;28;20209;-61
2021/11/13 05:05:32;;;;;;;6.65;5.40;;;8.40;99.90;;;;;;4991963;28;20238;-61
2021/11/13 05:08:01;;;;;;;9.17;6.37;;;8.40;99.90;;;;;;4992552;28;20187;-64
2021/11/13 05:10:29;;;;;;;6.68;4.65;;;8.40;99.90;;;;;;4991933;28;20531;-62
2021/11/13 05:12:57;;;;;;;5.70;4.50;;;8.50;99.90;;;;;;4992303;28;20283;-61
2021/11/13 05:15:25;;;;;;;3.00;2.57;;;8.50;99.90;;;;;;4991945;28;20226;-61
2021/11/13 05:17:55;;;;;;;3.05;2.75;;;8.60;99.90;;;;;;4992718;28;20480;-62
2021/11/13 05:20:23;;;;;;;3.88;3.10;;;8.60;99.90;;;;;;4992374;28;20214;-62
2021/11/13 05:22:51;;;;;;;2.77;2.17;;;8.60;99.90;;;;;;4992270;28;20545;-62
2021/11/13 05:25:22;;;;;;;2.30;2.10;;;8.70;99.90;;;;;;4991704;28;20502;-61
2021/11/13 05:27:51;;;;;;;2.60;1.87;;;8.70;99.90;;;;;;4991500;28;20475;-63
2021/11/13 05:30:21;;;;;;;3.20;2.20;;;8.70;99.90;;;;;;4990685;28;20462;-63
2021/11/13 05:32:51;;;;;;;2.60;2.13;;;8.70;99.90;;;;;;4992534;28;20909;-61
2021/11/13 05:35:22;;;;;;;1.83;1.67;;;8.70;99.90;;;;;;4991250;28;20891;-62
2021/11/13 05:37:53;;;;;;;2.30;1.80;;;8.70;99.90;;;;;;4992365;28;20693;-63
2021/11/13 05:40:21;;;;;;;2.60;1.70;;;8.70;99.90;;;;;;4991981;28;20464;-64
2021/11/13 05:42:54;;;;;;;1.88;1.77;;;8.70;99.90;;;;;;5009286;28;20284;-62
2021/11/13 05:45:22;;;;;;;2.20;1.73;;;8.60;99.90;;;;;;5011050;28;20249;-62
2021/11/13 05:47:50;;;;;;;2.13;1.93;;;8.60;99.90;;;;;;5011611;28;20464;-62
2021/11/13 05:50:21;;;;;;;1.97;1.43;;;8.60;99.90;;;;;;5008497;28;20518;-64
2021/11/13 05:52:51;;;;;;;1.80;1.70;;;8.70;99.90;;;;;;5012032;28;20433;-61
2021/11/13 05:55:21;;;;;;;2.35;1.40;;;8.60;99.90;;;;;;5010724;28;20237;-61
2021/11/13 05:57:49;;;;;;;2.63;1.50;;;8.60;99.90;;;;;;5026438;28;20670;-64
2021/11/13 06:00:19;;;;;;;1.80;1.47;;;8.60;99.90;;;;;;5029435;28;20543;-63
2021/11/13 06:02:48;;;;;;;1.63;1.53;;;8.70;99.90;;;;;;5031429;28;20426;-62
2021/11/13 06:05:17;;;;;;;2.10;1.23;;;8.70;99.90;;;;;;4998060;28;20516;-61
2021/11/13 06:07:47;;;;;;;1.43;1.30;;;8.70;99.90;;;;;;4991834;28;20524;-64
2021/11/13 06:10:16;;;;;;;2.00;1.80;;;8.70;99.90;;;;;;4991641;28;20469;-63
2021/11/13 06:12:45;;;;;;;1.40;1.20;;;8.70;99.90;;;;;;4991792;28;20446;-62
2021/11/13 06:15:13;;;;;;;2.43;1.23;;;8.60;99.90;;;;;;4991122;28;21065;-61
2021/11/13 06:17:41;;;;;;;1.30;1.20;;;8.70;99.90;;;;;;4992160;28;20418;-64
2021/11/13 06:20:11;;;;;;;1.87;1.33;;;8.60;99.90;;;;;;4991593;28;20283;-63
2021/11/13 06:22:39;;;;;;;1.80;1.60;;;8.60;99.90;;;;;;4991593;28;20886;-62
2021/11/13 06:25:10;;;;;;;1.40;1.30;;;8.60;99.90;;;;;;4989921;28;20518;-61
2021/11/13 06:27:40;;;;;;;0.88;0.85;;;8.60;99.90;;;;;;4991568;28;20283;-63
2021/11/13 06:30:11;;;;;;;1.30;1.20;;;8.60;99.90;;;;;;4994390;28;20666;-64
2021/11/13 06:32:40;;;;;;;1.40;1.10;;;8.60;99.90;;;;;;4994185;28;20456;-61
2021/11/13 06:35:10;;;;;;;2.03;1.52;;;8.60;99.90;;;;;;4994549;28;20517;-61
2021/11/13 06:37:39;;;;;;;1.10;1.00;;;8.70;99.90;;;;;;4995504;28;20220;-63
2021/11/13 06:40:11;;;;;;;0.95;0.85;;;8.60;99.90;;;;;;4994879;28;20232;-64
2021/11/13 06:42:47;;;;;;;1.00;0.90;;;8.70;99.90;;;;;;4995067;28;20204;-62
2021/11/13 06:45:16;;;;;;;1.05;0.90;;;8.60;99.90;;;;;;4995655;28;20231;-61
2021/11/13 06:47:45;;;;;;;1.50;1.17;;;8.70;99.90;;;;;;5014721;28;20236;-62
2021/11/13 06:50:14;;;;;;;1.37;1.27;;;8.70;99.90;;;;;;5004229;28;20503;-63
2021/11/13 06:52:43;;;;;;;1.80;1.30;;;8.70;99.90;;;;;;4995394;28;20422;-62
2021/11/13 06:55:13;;;;;;;1.83;1.47;;;8.70;99.90;;;;;;5012917;28;20467;-62
2021/11/13 06:57:42;;;;;;;1.33;0.93;;;8.70;99.90;;;;;;4998508;28;20504;-61
2021/11/13 07:00:14;;;;;;;1.20;0.80;;;8.70;99.90;;;;;;4994143;28;20465;-62
2021/11/13 07:02:42;;;;;;;1.07;0.70;;;8.80;99.90;;;;;;4994930;28;20454;-61
2021/11/13 07:05:11;;;;;;;1.30;1.20;;;8.80;99.90;;;;;;4994019;28;20484;-62
2021/11/13 07:07:40;;;;;;;2.70;1.33;;;8.90;99.90;;;;;;4994691;28;20524;-63
2021/11/13 07:10:13;;;;;;;2.13;1.43;;;8.90;99.90;;;;;;4992859;28;20468;-63
2021/11/13 07:12:42;;;;;;;1.53;1.30;;;8.90;99.90;;;;;;4994541;28;20499;-62
2021/11/13 07:15:12;;;;;;;1.10;0.90;;;8.90;99.90;;;;;;4993733;28;20469;-61
2021/11/13 07:17:40;;;;;;;2.33;0.97;;;8.90;99.90;;;;;;4995046;28;20507;-61
2021/11/13 07:20:10;;;;;;;0.80;0.70;;;8.90;99.90;;;;;;4993266;28;20467;-63
2021/11/13 07:22:40;;;;;;;1.50;1.40;;;8.90;99.90;;;;;;4993333;28;20437;-63
2021/11/13 07:25:13;;;;;;;1.40;1.27;;;8.90;99.90;;;;;;4992545;28;20480;-62
2021/11/13 07:27:46;;;;;;;1.30;1.20;;;8.90;99.90;;;;;;4994312;28;20473;-62
2021/11/13 07:30:17;;;;;;;1.10;0.90;;;8.80;99.90;;;;;;4993651;28;20472;-62
2021/11/13 07:32:46;;;;;;;1.47;1.27;;;8.90;99.90;;;;;;4994491;28;20521;-63
2021/11/13 07:35:15;;;;;;;1.60;1.50;;;8.90;99.90;;;;;;4993533;28;20848;-61
2021/11/13 07:37:43;;;;;;;2.70;1.43;;;8.90;99.90;;;;;;4994067;28;20611;-61
2021/11/13 07:40:12;;;;;;;1.73;1.27;;;8.90;99.90;;;;;;4993900;28;20496;-64
2021/11/13 07:42:40;;;;;;;3.57;0.97;;;8.90;99.90;;;;;;5009290;28;20950;-62
2021/11/13 07:45:11;;;;;;;2.20;1.37;;;8.90;99.90;;;;;;5012768;28;20464;-61
2021/11/13 07:47:41;;;;;;;1.60;1.43;;;9.00;99.90;;;;;;5012349;28;20488;-61
2021/11/13 07:50:11;;;;;;;1.67;1.33;;;9.00;99.90;;;;;;5012948;28;20461;-63
2021/11/13 07:52:40;;;;;;;2.57;1.70;;;9.10;99.90;;;;;;5015596;28;20447;-63
2021/11/13 07:55:08;;;;;;;2.13;1.50;;;9.10;99.90;;;;;;4994633;28;20465;-61
2021/11/13 07:57:37;;;;;;;1.87;1.50;;;9.10;99.90;;;;;;4993666;28;20500;-60
2021/11/13 08:00:08;;;;;;;1.40;1.30;;;9.20;99.90;;;;;;4993212;28;20557;-62
2021/11/13 08:02:41;;;;;;;1.40;1.20;;;9.20;99.90;;;;;;4993859;28;20471;-62
2021/11/13 08:05:11;;;;;;;2.40;1.90;;;9.20;99.90;;;;;;4992718;28;20523;-62
2021/11/13 08:07:39;;;;;;;1.37;1.27;;;9.20;99.90;;;;;;4993572;28;21053;-62
2021/11/13 08:10:09;;;;;;;1.47;1.37;;;9.20;99.90;;;;;;4992835;28;21049;-63
2021/11/13 08:12:38;;;;;;;2.80;1.80;;;9.20;99.90;;;;;;4993519;28;20869;-63
2021/11/13 08:15:08;;;;;;;1.67;1.37;;;9.20;99.90;;;;;;4992602;28;20524;-61
2021/11/13 08:17:36;;;;;;;1.57;1.33;;;9.20;99.90;;;;;;4993565;28;20484;-61
2021/11/13 08:20:08;;;;;;;1.57;1.30;;;9.20;99.90;;;;;;4992721;28;20470;-63
2021/11/13 08:22:36;;;;;;;1.70;1.60;;;9.10;99.90;;;;;;5009801;28;20453;-62
2021/11/13 08:25:05;;;;;;;3.43;1.63;;;9.10;99.90;;;;;;5011918;28;20495;-61
2021/11/13 08:27:34;;;;;;;2.87;1.87;;;9.10;99.90;;;;;;4999607;28;20457;-61
2021/11/13 08:30:02;;;;;;;2.77;1.67;;;9.00;99.90;;;;;;4993633;28;20808;-63
2021/11/13 08:32:30;;;;;;;2.03;1.70;;;9.10;99.90;;;;;;4992966;28;20832;-63
2021/11/13 08:34:59;;;;;;;2.17;1.87;;;9.10;99.90;;;;;;4992286;28;20519;-62
2021/11/13 08:37:28;;;;;;;2.37;2.17;;;9.10;99.90;;;;;;4995875;28;20437;-62
2021/11/13 08:39:57;;;;;;;3.90;2.23;;;9.10;99.90;;;;;;5012172;28;20547;-63
2021/11/13 08:42:25;;;;;;;4.10;2.63;;;9.20;99.90;;;;;;4998625;28;20445;-62
2021/11/13 08:44:54;;;;;;;3.20;2.10;;;9.20;99.90;;;;;;4992225;28;20461;-62
2021/11/13 08:47:23;;;;;;;2.40;2.20;;;9.20;99.90;;;;;;4992971;28;20464;-61
2021/11/13 08:49:52;;;;;;;3.57;2.77;;;9.20;99.90;;;;;;4991125;28;20477;-61
2021/11/13 08:52:22;;;;;;;2.83;2.40;;;9.20;99.90;;;;;;4992690;28;20450;-62
2021/11/13 08:54:51;;;;;;;4.50;3.30;;;9.30;99.90;;;;;;5007715;28;20465;-62
2021/11/13 08:57:20;;;;;;;2.70;1.97;;;9.40;99.90;;;;;;4998776;28;20469;-60
2021/11/13 08:59:48;;;;;;;3.90;2.67;;;9.30;99.90;;;;;;4992351;28;20469;-62
2021/11/13 09:02:20;;;;;;;1.87;1.67;;;9.30;99.90;;;;;;5002332;28;20488;-63
2021/11/13 09:04:50;;;;;;;2.30;2.10;;;9.40;99.90;;;;;;4997128;28;20482;-61
2021/11/13 09:07:20;;;;;;;1.93;1.60;;;9.40;99.90;;;;;;4992903;28;20441;-61
2021/11/13 09:09:49;;;;;;;1.80;1.67;;;9.40;99.90;;;;;;5011698;28;20465;-63
2021/11/13 09:12:24;;;;;;;2.13;1.93;;;9.40;99.90;;;;;;4999381;28;20437;-62
2021/11/13 09:14:54;;;;;;;2.00;1.80;;;9.40;99.90;;;;;;4991822;28;20474;-60
2021/11/13 09:17:23;;;;;;;5.70;1.50;;;9.40;99.90;;;;;;4992545;28;20458;-61
2021/11/13 09:19:52;;;;;;;2.80;1.80;;;9.40;99.90;;;;;;4996616;28;20468;-62
2021/11/13 09:22:20;;;;;;;2.87;1.90;;;9.40;99.90;;;;;;4994765;28;20449;-61
2021/11/13 09:24:49;;;;;;;2.93;1.63;;;9.40;99.90;;;;;;4991624;28;20852;-61
2021/11/13 09:27:18;;;;;;;3.27;2.00;;;9.40;99.90;;;;;;4992708;28;20875;-61
2021/11/13 09:29:50;;;;;;;3.17;2.10;;;9.40;99.90;;;;;;4991939;28;20489;-62
2021/11/13 09:32:19;;;;;;;3.50;2.20;;;9.40;99.90;;;;;;4992578;28;20487;-62
2021/11/13 09:34:47;;;;;;;2.10;1.87;;;9.50;99.90;;;;;;4991463;28;20465;-61
2021/11/13 09:37:15;;;;;;;2.30;2.00;;;9.50;99.90;;;;;;4992343;28;20441;-61
2021/11/13 09:39:43;;;;;;;2.90;2.40;;;9.60;99.90;;;;;;4991933;28;20524;-62
2021/11/13 09:42:11;;;;;;;3.90;2.03;;;9.70;99.90;;;;;;5001705;28;20441;-63
2021/11/13 09:44:41;;;;;;;2.13;1.90;;;9.80;99.90;;;;;;5011212;28;21024;-61
2021/11/13 09:47:11;;;;;;;2.83;2.23;;;9.90;99.90;;;;;;5011642;28;20954;-61
2021/11/13 09:49:39;;;;;;;2.20;1.77;;;10.00;99.90;;;;;;5011053;28;20473;-62
2021/11/13 09:52:08;;;;;;;4.23;2.37;;;10.10;99.90;;;;;;5000016;28;20500;-63
2021/11/13 09:54:36;;;;;;;2.10;1.83;;;10.10;99.90;;;;;;4991742;28;20559;-61
2021/11/13 09:57:05;;;;;;;1.90;1.57;;;10.10;99.90;;;;;;5000681;28;20465;-61
2021/11/13 09:59:33;;;;;;;3.20;2.43;;;10.20;99.90;;;;;;5011466;28;20466;-62
2021/11/13 10:02:04;;;;;;;2.10;1.90;;;10.20;99.90;;;;;;5012670;28;21168;-63
2021/11/13 10:04:32;;;;;;;3.20;1.80;;;10.20;99.90;;;;;;5016703;28;20985;-61
2021/11/13 10:07:00;;;;;;;2.10;1.83;;;10.20;99.90;;;;;;5010807;28;20470;-62
2021/11/13 10:09:28;;;;;;;2.73;2.40;;;10.20;99.90;;;;;;4995557;28;20492;-63
2021/11/13 10:11:56;;;;;;;3.10;1.90;;;10.30;99.90;;;;;;4994755;28;20449;-63
2021/11/13 10:14:35;;;;;;;3.73;2.23;;;10.40;99.90;;;;;;4994928;28;20457;-61
2021/11/13 10:17:18;;;;;;;2.43;2.20;;;10.50;99.90;;;;;;4995773;28;20954;-61
2021/11/13 10:19:46;;;;;;;2.90;2.60;;;10.60;99.90;;;;;;4997221;28;21193;-62
2021/11/13 10:22:14;;;;;;;3.57;2.53;;;10.60;99.90;;;;;;5014243;28;20433;-62
2021/11/13 10:24:46;;;;;;;3.30;2.03;;;10.70;99.90;;;;;;5014278;28;20479;-61
2021/11/13 10:27:15;;;;;;;2.77;2.57;;;10.90;99.90;;;;;;5002905;28;20477;-62
2021/11/13 10:29:47;;;;;;;3.40;3.00;;;10.90;99.90;;;;;;4995048;28;20516;-62
2021/11/13 10:32:19;;;;;;;4.10;3.27;;;10.90;99.90;;;;;;4995701;28;20418;-63
2021/11/13 10:34:49;;;;;;;3.67;2.93;;;10.90;99.90;;;;;;4994648;28;20462;-61
2021/11/13 10:37:20;;;;;;;5.43;3.57;;;10.90;99.90;;;;;;4995412;28;20517;-61
2021/11/13 10:39:58;;;;;;;7.80;3.90;;;10.90;99.90;;;;;;4994794;28;20482;-61
2021/11/13 10:42:26;;;;;;;3.67;3.27;;;11.00;99.90;;;;;;4995620;28;20789;-63
2021/11/13 10:44:58;;;;;;;4.03;3.60;;;11.10;99.90;;;;;;4994624;28;20473;-62
2021/11/13 10:47:33;;;;;;;4.47;3.83;;;11.20;99.90;;;;;;4995313;28;20438;-61
2021/11/13 10:50:15;;;;;;;4.73;3.80;;;11.30;99.90;;;;;;4994312;28;20516;-61
2021/11/13 10:52:57;;;;;;;5.40;3.60;;;11.40;99.90;;;;;;4995354;28;20439;-62
2021/11/13 10:55:25;;;;;;;4.27;3.47;;;11.50;99.90;;;;;;4994109;28;20470;-62
2021/11/13 10:58:29;;;;;;;5.13;3.87;;;11.50;99.90;;;;;;5012433;28;20449;-62
2021/11/13 11:00:57;;;;;;;4.37;3.90;;;11.40;99.90;;;;;;5013716;28;20464;-62
2021/11/13 11:03:31;;;;;;;4.20;3.80;;;11.40;99.90;;;;;;5014655;28;20433;-63
2021/11/13 11:05:59;;;;;;;4.63;4.10;;;11.40;99.90;;;;;;5010387;28;20484;-62
2021/11/13 11:08:32;;;;;;;5.33;4.83;;;11.40;99.90;;;;;;4996963;28;20438;-62
2021/11/13 11:11:01;;;;;;;5.47;3.37;;;11.40;99.90;;;;;;5026396;28;20524;-63
2021/11/13 11:13:43;;;;;;;4.77;4.17;;;11.50;99.90;;;;;;4994886;28;20428;-62
2021/11/13 11:16:27;;;;;;;5.10;3.03;;;11.50;99.90;;;;;;4993638;28;20478;-61
2021/11/13 11:19:01;;;;;;;4.77;3.47;;;11.50;99.90;;;;;;4994280;28;20861;-61
2021/11/13 11:21:58;;;;;;;6.30;3.33;;;11.50;99.90;;;;;;4994632;28;20524;-63
2021/11/13 11:24:30;;;;;;;4.60;3.07;;;11.50;99.90;;;;;;4960212;28;20461;-62
2021/11/13 11:27:03;;;;;;;3.30;3.00;;;11.50;99.90;;;;;;5001287;28;20466;-61
2021/11/13 11:29:33;;;;;;;3.70;3.27;;;11.50;99.90;;;;;;4993920;28;20478;-61
2021/11/13 11:32:04;;;;;;;3.60;3.07;;;11.50;99.90;;;;;;4994578;28;20438;-63
2021/11/13 11:34:36;;;;;;;3.93;3.47;;;11.50;99.90;;;;;;4993595;28;20839;-63
2021/11/13 11:37:12;;;;;;;3.50;3.20;;;11.50;99.90;;;;;;4996278;28;20466;-62
2021/11/13 11:39:41;;;;;;;4.47;3.37;;;11.40;99.90;;;;;;5013774;28;20464;-62
2021/11/13 11:42:10;;;;;;;3.53;3.23;;;11.50;99.90;;;;;;5015603;28;20441;-61
2021/11/13 11:44:40;;;;;;;4.70;3.67;;;11.40;99.90;;;;;;5014062;28;20485;-63
2021/11/13 11:47:12;;;;;;;5.07;3.33;;;11.40;99.90;;;;;;5013930;28;20555;-62
2021/11/13 11:49:47;;;;;;;2.73;2.53;;;11.30;99.90;;;;;;5025644;28;20476;-62
2021/11/13 11:52:17;;;;;;;4.07;2.50;;;11.30;99.90;;;;;;5004128;28;20446;-63
2021/11/13 11:54:46;;;;;;;2.83;2.63;;;11.20;99.90;;;;;;5012906;28;20563;-63
2021/11/13 11:57:15;;;;;;;3.10;2.87;;;11.30;99.90;;;;;;5000810;28;20465;-61
2021/11/13 11:59:44;;;;;;;2.97;2.77;;;11.20;99.90;;;;;;4993134;28;20469;-63
2021/11/13 12:02:15;;;;;;;3.20;2.90;;;11.30;99.90;;;;;;4992664;28;20441;-62
2021/11/13 12:04:46;;;;;;;5.40;3.30;;;11.30;99.90;;;;;;4993138;28;20525;-64
2021/11/13 12:07:28;;;;;;;3.30;2.93;;;11.40;99.90;;;;;;4993970;28;20867;-62
2021/11/13 12:10:07;;;;;;;4.00;2.73;;;11.40;99.90;;;;;;5009716;28;20500;-62
2021/11/13 12:12:36;;;;;;;3.17;2.70;;;11.40;99.90;;;;;;4997895;28;20981;-63
2021/11/13 12:15:20;;;;;;;3.17;2.93;;;11.40;99.90;;;;;;4992765;28;20953;-63
2021/11/13 12:17:51;;;;;;;3.13;2.90;;;11.50;99.90;;;;;;4993718;28;20419;-61
2021/11/13 12:20:33;;;;;;;3.00;2.70;;;11.50;99.90;;;;;;4993177;28;20473;-63
2021/11/13 12:23:15;;;;;;;3.40;3.10;;;11.40;99.90;;;;;;4993476;28;20411;-63
2021/11/13 12:26:02;;;;;;;3.90;2.83;;;11.50;99.90;;;;;;4991951;28;20457;-61
2021/11/13 12:28:31;;;;;;;3.47;2.60;;;11.50;99.90;;;;;;4993150;28;20856;-61
2021/11/13 12:31:12;;;;;;;3.60;2.87;;;11.40;99.90;;;;;;4992710;28;20474;-62
2021/11/13 12:33:53;;;;;;;3.30;2.83;;;11.40;99.90;;;;;;4993183;28;20458;-62
2021/11/13 12:36:28;;;;;;;3.40;2.40;;;11.40;99.90;;;;;;4992865;28;20520;-62
2021/11/13 12:39:06;;;;;;;3.33;2.87;;;11.40;99.90;;;;;;5011865;28;20493;-61
2021/11/13 12:41:46;;;;;;;3.87;3.20;;;11.30;99.90;;;;;;5020429;28;20438;-63
2021/11/13 12:44:20;;;;;;;3.30;2.70;;;11.30;99.90;;;;;;4996483;28;20449;-62
2021/11/13 12:46:51;;;;;;;3.43;3.00;;;11.20;99.90;;;;;;5012335;28;20523;-61
2021/11/13 12:49:46;;;;;;;2.63;2.43;;;11.20;99.90;;;;;;5011981;28;20826;-61
2021/11/13 12:52:33;;;;;;;3.97;3.60;;;11.20;99.90;;;;;;5027232;28;20421;-62
2021/11/13 12:55:25;;;;;;;3.50;3.20;;;11.10;99.90;;;;;;5009804;28;20591;-63
2021/11/13 12:58:10;;;;;;;4.50;2.40;;;11.10;99.90;;;;;;4994563;28;20452;-62
2021/11/13 13:00:41;;;;;;;2.57;2.37;;;11.00;99.90;;;;;;4992326;28;20458;-63
2021/11/13 13:03:15;;;;;;;2.90;2.70;;;11.00;99.90;;;;;;4991471;28;20541;-62
2021/11/13 13:05:44;;;;;;;3.50;3.03;;;11.00;99.90;;;;;;5005904;28;20471;-61